Time;durP1;ratioP1;P1;durP2;ratioP2;P2;SDS_P1;SDS_P2;PMS_P1;PMS_P2;Temp;Humidity;BMP_temperature;BMP_pressure;BME280_temperature;BME280_humidity;BME280_pressure;Samples;Min_cycle;Max_cycle;Signal;HPM_P1;HPM_P2
2023/11/17 00:01:43;;;;;;;20.30;11.77;;;;;;;3.31;100.00;101756.25;4993331;28;20046;-79
2023/11/17 00:04:08;;;;;;;17.02;11.30;;;;;;;3.33;100.00;101762.28;4992787;28;20462;-79
2023/11/17 00:06:33;;;;;;;22.15;11.70;;;;;;;3.34;100.00;101761.38;4993940;28;20034;-79
2023/11/17 00:09:00;;;;;;;25.40;11.63;;;;;;;3.37;100.00;101762.13;4993541;28;20396;-79
2023/11/17 00:11:25;;;;;;;23.48;11.90;;;;;;;3.39;100.00;101766.41;4993599;28;20026;-78
2023/11/17 00:13:51;;;;;;;23.83;11.73;;;;;;;3.40;100.00;101765.47;4991760;28;20038;-79
2023/11/17 00:16:17;;;;;;;22.67;12.27;;;;;;;3.40;100.00;101764.63;4993215;28;20466;-78
2023/11/17 00:18:43;;;;;;;22.30;12.32;;;;;;;3.41;100.00;101771.59;4992978;28;20042;-78
2023/11/17 00:21:10;;;;;;;22.77;12.60;;;;;;;3.43;100.00;101772.38;4993105;28;20037;-78
2023/11/17 00:23:36;;;;;;;21.23;13.00;;;;;;;3.43;100.00;101780.28;4993367;28;20038;-77
2023/11/17 00:26:03;;;;;;;25.55;13.52;;;;;;;3.45;100.00;101775.78;4992960;28;20037;-78
2023/11/17 00:28:38;;;;;;;22.88;13.27;;;;;;;3.46;100.00;101775.75;4992811;28;20163;-79
2023/11/17 00:31:05;;;;;;;26.70;13.90;;;;;;;3.47;100.00;101774.78;4993755;28;20455;-78
2023/11/17 00:33:30;;;;;;;29.73;12.90;;;;;;;3.49;100.00;101777.34;4993966;28;20054;-78
2023/11/17 00:35:55;;;;;;;23.00;13.10;;;;;;;3.46;100.00;101783.63;4993408;28;20130;-78
2023/11/17 00:38:21;;;;;;;18.45;12.05;;;;;;;3.45;100.00;101786.31;4991750;28;20041;-77
2023/11/17 00:40:46;;;;;;;23.08;12.65;;;;;;;3.44;100.00;101790.72;4992577;28;20050;-78
2023/11/17 00:43:12;;;;;;;20.58;12.77;;;;;;;3.47;100.00;101793.22;4993264;28;20455;-79
2023/11/17 00:45:37;;;;;;;20.48;12.25;;;;;;;3.47;100.00;101789.75;4991377;28;20034;-79
2023/11/17 00:54:47;;;;;;;22.58;11.90;;;;;;;3.49;100.00;101804.53;5217547;23;20091;-78
2023/11/17 00:57:13;;;;;;;19.92;12.20;;;;;;;3.51;100.00;101802.69;5029972;28;20388;-78
2023/11/17 00:59:38;;;;;;;20.98;13.02;;;;;;;3.53;100.00;101813.13;5031467;28;20036;-78
2023/11/17 01:02:08;;;;;;;24.10;13.52;;;;;;;3.58;100.00;101807.66;5030681;28;20116;-79
2023/11/17 01:04:33;;;;;;;21.08;12.90;;;;;;;3.55;100.00;101813.91;5029827;28;20060;-78
2023/11/17 01:06:59;;;;;;;26.40;13.38;;;;;;;3.56;100.00;101807.72;5031151;28;20033;-79
2023/11/17 01:09:25;;;;;;;22.10;12.70;;;;;;;3.56;100.00;101809.53;5030787;28;20029;-79
2023/11/17 01:11:54;;;;;;;22.75;12.40;;;;;;;3.55;100.00;101813.06;5031352;28;20369;-78
2023/11/17 01:14:20;;;;;;;22.63;12.00;;;;;;;3.52;100.00;101808.78;5031840;28;20029;-77
2023/11/17 01:16:48;;;;;;;20.35;11.80;;;;;;;3.55;100.00;101818.34;5033537;28;20484;-77
2023/11/17 01:19:14;;;;;;;22.63;12.32;;;;;;;3.52;100.00;101817.56;5034422;28;20161;-78
2023/11/17 01:21:39;;;;;;;24.50;12.70;;;;;;;3.52;100.00;101819.31;5034757;28;20180;-77
2023/11/17 01:24:05;;;;;;;22.02;12.38;;;;;;;3.53;100.00;101821.88;5034752;28;20040;-78
2023/11/17 01:26:31;;;;;;;27.77;13.35;;;;;;;3.55;100.00;101827.06;5034697;28;20397;-77
2023/11/17 01:28:56;;;;;;;26.60;13.77;;;;;;;3.58;100.00;101829.56;5034648;28;20052;-77
2023/11/17 01:31:22;;;;;;;31.65;12.85;;;;;;;3.56;100.00;101825.31;5034048;28;20033;-77
2023/11/17 01:33:48;;;;;;;29.42;13.50;;;;;;;3.57;100.00;101829.63;5034579;28;20026;-78
2023/11/17 01:36:20;;;;;;;22.48;12.95;;;;;;;3.56;100.00;101830.56;5034027;28;20453;-77
2023/11/17 01:38:46;;;;;;;21.92;13.30;;;;;;;3.52;100.00;101825.47;5033028;28;20034;-77
2023/11/17 01:41:12;;;;;;;22.85;12.65;;;;;;;3.53;100.00;101826.31;5033692;28;20037;-78
2023/11/17 01:43:38;;;;;;;20.50;13.05;;;;;;;3.51;100.00;101825.53;5034408;28;20037;-78
2023/11/17 01:46:04;;;;;;;23.58;13.55;;;;;;;3.49;100.00;101838.75;5034332;28;20038;-78
2023/11/17 01:48:29;;;;;;;22.27;12.70;;;;;;;3.48;100.00;101846.72;5033678;28;20037;-79
2023/11/17 01:50:55;;;;;;;19.83;12.25;;;;;;;3.45;100.00;101837.19;5034225;28;20033;-77
2023/11/17 01:53:21;;;;;;;20.30;11.45;;;;;;;3.43;100.00;101841.63;5033665;28;20034;-77
2023/11/17 01:55:49;;;;;;;23.80;12.55;;;;;;;3.41;100.00;101840.84;5033919;28;20072;-78
2023/11/17 01:58:15;;;;;;;20.42;12.15;;;;;;;3.41;100.00;101840.84;5033692;28;20076;-78
2023/11/17 02:00:41;;;;;;;25.25;11.52;;;;;;;3.42;100.00;101845.22;5032416;28;20034;-77
2023/11/17 02:03:07;;;;;;;23.88;12.18;;;;;;;3.42;100.00;101846.97;5034011;28;20390;-78
2023/11/17 02:05:34;;;;;;;22.63;11.48;;;;;;;3.43;100.00;101843.41;5033951;28;20037;-78
2023/11/17 02:08:26;;;;;;;19.33;11.23;;;;;;;3.45;100.00;101850.34;5032628;28;20041;-78
2023/11/17 02:11:45;;;;;;;24.10;12.55;;;;;;;3.49;100.00;101838.75;5033902;28;20044;-78
2023/11/17 02:14:20;;;;;;;20.42;11.25;;;;;;;3.50;100.00;101844.84;4992001;28;20038;-78
2023/11/17 02:16:50;;;;;;;21.35;11.95;;;;;;;3.48;100.00;101850.19;5027268;28;20037;-78
2023/11/17 02:19:42;;;;;;;25.88;11.75;;;;;;;3.49;100.00;101854.53;5033053;28;20075;-79
2023/11/17 02:22:17;;;;;;;21.30;11.35;;;;;;;3.48;100.00;101849.34;5033791;28;20095;-78
2023/11/17 02:25:10;;;;;;;23.60;11.73;;;;;;;3.50;100.00;101850.97;5033956;28;20097;-78
2023/11/17 02:27:59;;;;;;;15.68;10.15;;;;;;;3.52;100.00;101845.63;5032648;28;20492;-78
2023/11/17 02:30:30;;;;;;;24.40;11.02;;;;;;;3.53;100.00;101836.81;5032825;28;20456;-78
2023/11/17 02:32:56;;;;;;;25.83;10.63;;;;;;;3.56;100.00;101843.72;5033454;28;20038;-78
2023/11/17 02:35:28;;;;;;;21.08;10.18;;;;;;;3.52;100.00;101830.72;5032964;28;20430;-79
2023/11/17 02:38:06;;;;;;;17.60;9.70;;;;;;;3.54;100.00;101833.28;5033326;28;20034;-78
2023/11/17 02:40:32;;;;;;;16.70;10.05;;;;;;;3.55;100.00;101828.84;5033133;28;20113;-78
2023/11/17 02:43:07;;;;;;;21.17;11.38;;;;;;;3.55;100.00;101834.13;5032095;28;20091;-78
2023/11/17 02:45:36;;;;;;;20.85;11.93;;;;;;;3.57;100.00;101832.25;5032968;28;20068;-78
2023/11/17 02:48:02;;;;;;;22.02;10.98;;;;;;;3.57;100.00;101838.41;5033257;28;20037;-78
2023/11/17 02:50:53;;;;;;;19.05;10.90;;;;;;;3.55;100.00;101834.13;5032742;28;20034;-77
2023/11/17 02:53:28;;;;;;;18.13;10.85;;;;;;;3.51;100.00;101833.41;5032995;28;20025;-78
2023/11/17 02:55:57;;;;;;;19.58;10.55;;;;;;;3.43;100.00;101827.63;5033363;28;20081;-77
2023/11/17 02:58:24;;;;;;;21.48;11.50;;;;;;;3.39;100.00;101832.19;5032706;28;20029;-78
2023/11/17 03:00:51;;;;;;;22.13;10.73;;;;;;;3.38;100.00;101829.63;5033236;28;20110;-79
2023/11/17 03:03:22;;;;;;;20.30;11.48;;;;;;;3.37;100.00;101827.91;5032992;28;20033;-79
2023/11/17 03:05:52;;;;;;;21.08;11.00;;;;;;;3.34;100.00;101824.50;5032155;28;20036;-79
2023/11/17 03:08:19;;;;;;;22.60;10.95;;;;;;;3.33;100.00;101828.06;5032713;28;20116;-88
2023/11/17 03:10:46;;;;;;;24.95;11.15;;;;;;;3.34;100.00;101832.41;5031450;28;20068;-79
2023/11/17 03:13:15;;;;;;;22.73;10.98;;;;;;;3.34;100.00;101826.25;5032786;28;20423;-78
2023/11/17 03:15:41;;;;;;;24.10;11.55;;;;;;;3.34;100.00;101827.13;5032205;28;20033;-78
2023/11/17 03:18:09;;;;;;;22.58;10.40;;;;;;;3.35;100.00;101814.81;5031352;28;20029;-79
2023/11/17 03:20:35;;;;;;;16.40;9.68;;;;;;;3.35;100.00;101810.41;5031829;28;20037;-79
2023/11/17 03:23:00;;;;;;;17.48;9.77;;;;;;;3.38;100.00;101811.22;5032301;28;20029;-78
2023/11/17 03:25:26;;;;;;;18.50;9.45;;;;;;;3.38;100.00;101812.06;5032034;28;20091;-78
2023/11/17 03:27:52;;;;;;;19.15;8.77;;;;;;;3.40;100.00;101804.09;5032332;28;20025;-78
2023/11/17 03:30:17;;;;;;;17.73;8.55;;;;;;;3.41;100.00;101811.06;5032110;28;20411;-77
2023/11/17 03:32:47;;;;;;;14.80;8.13;;;;;;;3.42;100.00;101813.63;5031808;28;20087;-79
2023/11/17 03:35:13;;;;;;;15.82;7.75;;;;;;;3.42;100.00;101816.25;5032388;28;20422;-78
2023/11/17 03:37:38;;;;;;;15.10;7.65;;;;;;;3.43;100.00;101820.59;5031738;28;20041;-79
2023/11/17 03:40:11;;;;;;;14.05;8.13;;;;;;;3.43;100.00;101815.31;5032286;28;20034;-78
2023/11/17 03:42:37;;;;;;;14.88;7.05;;;;;;;3.41;100.00;101821.59;5032075;28;20485;-78
2023/11/17 03:45:07;;;;;;;13.32;7.68;;;;;;;3.41;100.00;101827.69;5030956;28;20033;-78
2023/11/17 03:47:36;;;;;;;17.40;7.43;;;;;;;3.41;100.00;101817.19;5031863;28;20036;-78
2023/11/17 03:50:03;;;;;;;13.68;7.15;;;;;;;3.39;100.00;101819.03;5032183;28;20192;-79
2023/11/17 03:52:29;;;;;;;10.20;6.40;;;;;;;3.37;100.00;101812.97;5031438;28;20037;-79
2023/11/17 03:54:56;;;;;;;15.57;7.28;;;;;;;3.38;100.00;101819.94;5030287;28;20087;-79
2023/11/17 03:57:22;;;;;;;15.95;7.72;;;;;;;3.38;100.00;101819.09;5032019;28;20581;-78
2023/11/17 03:59:47;;;;;;;16.98;8.23;;;;;;;3.37;100.00;101820.03;5032373;28;20029;-78
2023/11/17 04:02:13;;;;;;;12.00;7.57;;;;;;;3.34;100.00;101808.72;5031905;28;20040;-79
2023/11/17 04:04:39;;;;;;;11.25;7.38;;;;;;;3.33;100.00;101814.06;5031663;28;20351;-78
2023/11/17 04:07:05;;;;;;;14.68;7.50;;;;;;;3.30;100.00;101809.78;5032697;28;20037;-78
2023/11/17 04:09:31;;;;;;;13.52;7.70;;;;;;;3.28;100.00;101818.66;5031911;28;20049;-79
2023/11/17 04:12:01;;;;;;;16.25;7.43;;;;;;;3.26;100.00;101823.13;5032634;28;20041;-77
2023/11/17 04:14:37;;;;;;;15.52;8.20;;;;;;;3.25;100.00;101824.03;5031785;28;20038;-78
2023/11/17 04:17:03;;;;;;;14.13;7.65;;;;;;;3.22;100.00;101829.44;5032259;28;20033;-78
2023/11/17 04:19:29;;;;;;;18.30;8.15;;;;;;;3.22;100.00;101825.03;5031547;28;20441;-82
2023/11/17 04:21:55;;;;;;;15.85;7.63;;;;;;;3.25;100.00;101835.41;5031718;28;20049;-78
2023/11/17 04:24:20;;;;;;;16.63;7.85;;;;;;;3.25;100.00;101832.78;5031784;28;20037;-79
2023/11/17 04:26:46;;;;;;;17.55;7.65;;;;;;;3.27;100.00;101830.06;5030952;28;20064;-79
2023/11/17 04:29:11;;;;;;;14.43;7.78;;;;;;;3.28;100.00;101835.28;5030326;28;20457;-79
2023/11/17 04:31:38;;;;;;;21.08;8.13;;;;;;;3.27;100.00;101833.59;5031187;28;20469;-79
2023/11/17 04:34:03;;;;;;;16.02;7.93;;;;;;;3.28;100.00;101832.63;5031674;28;20038;-79
2023/11/17 04:36:32;;;;;;;16.73;7.97;;;;;;;3.29;100.00;101837.00;5030160;28;20059;-79
2023/11/17 04:38:58;;;;;;;16.40;7.78;;;;;;;3.28;100.00;101845.78;5031458;28;20403;-78
2023/11/17 04:41:23;;;;;;;15.05;7.60;;;;;;;3.25;100.00;101840.66;5031349;28;20037;-79
2023/11/17 04:43:49;;;;;;;13.80;7.57;;;;;;;3.23;100.00;101852.19;5031057;28;20033;-79
2023/11/17 04:46:21;;;;;;;15.25;7.68;;;;;;;3.21;100.00;101846.13;5031527;28;20373;-78
2023/11/17 04:48:47;;;;;;;11.80;7.72;;;;;;;3.17;100.00;101846.28;5031771;28;20034;-78
2023/11/17 04:51:13;;;;;;;12.60;7.55;;;;;;;3.15;100.00;101842.00;5037905;28;20064;-78
2023/11/17 04:53:39;;;;;;;15.32;8.45;;;;;;;3.12;100.00;101853.50;5037011;28;20434;-79
2023/11/17 04:56:05;;;;;;;19.70;8.20;;;;;;;3.13;100.00;101852.56;5035402;28;20060;-77
2023/11/17 04:58:30;;;;;;;13.38;6.90;;;;;;;3.12;100.00;101850.88;5033961;28;20029;-79
2023/11/17 05:00:56;;;;;;;12.05;7.50;;;;;;;3.10;100.00;101850.06;5034863;28;20041;-78
2023/11/17 05:03:21;;;;;;;19.38;7.85;;;;;;;3.07;100.00;101852.00;5035197;28;20029;-78
2023/11/17 05:05:48;;;;;;;18.20;8.32;;;;;;;3.05;100.00;101857.31;5034888;28;20034;-77
2023/11/17 05:08:16;;;;;;;16.20;8.10;;;;;;;3.03;100.00;101851.28;5035179;28;20038;-77
2023/11/17 05:10:45;;;;;;;16.30;8.77;;;;;;;3.01;100.00;101853.09;5034300;28;20034;-79
2023/11/17 05:13:12;;;;;;;13.52;7.90;;;;;;;2.99;100.00;101847.06;5034717;28;20033;-78
2023/11/17 05:15:40;;;;;;;13.40;7.95;;;;;;;3.00;100.00;101854.03;5034598;28;20199;-78
2023/11/17 05:18:05;;;;;;;14.82;7.75;;;;;;;2.99;100.00;101854.97;5034779;28;20493;-78
2023/11/17 05:20:31;;;;;;;16.85;8.10;;;;;;;2.95;100.00;101856.00;5033449;28;20029;-78
2023/11/17 05:22:56;;;;;;;16.17;8.57;;;;;;;2.93;100.00;101863.13;5034287;28;20045;-79
2023/11/17 05:25:21;;;;;;;18.60;8.75;;;;;;;2.91;100.00;101868.44;5034675;28;20436;-78
2023/11/17 05:27:49;;;;;;;17.48;9.10;;;;;;;2.88;100.00;101870.31;5033963;28;20035;-79
2023/11/17 05:30:15;;;;;;;22.30;9.50;;;;;;;2.83;100.00;101871.34;5034390;28;20056;-78
2023/11/17 05:32:41;;;;;;;15.95;8.30;;;;;;;2.79;100.00;101877.69;5033866;28;20444;-79
2023/11/17 05:35:07;;;;;;;21.83;8.57;;;;;;;2.78;100.00;101875.13;5034353;28;20129;-78
2023/11/17 05:37:34;;;;;;;14.00;7.57;;;;;;;2.76;100.00;101871.69;5034471;28;20041;-78
2023/11/17 05:39:59;;;;;;;15.90;7.90;;;;;;;2.73;100.00;101869.19;5034120;28;20033;-78
2023/11/17 05:42:25;;;;;;;14.50;8.55;;;;;;;2.70;100.00;101874.56;5034241;28;20041;-78
2023/11/17 05:44:51;;;;;;;20.95;9.93;;;;;;;2.70;100.00;101879.81;5033738;28;20033;-79
2023/11/17 05:47:16;;;;;;;20.05;8.82;;;;;;;2.68;100.00;101879.03;5033108;28;20030;-80
2023/11/17 05:49:45;;;;;;;19.17;9.52;;;;;;;2.66;100.00;101881.72;5034019;28;20040;-78
2023/11/17 05:52:11;;;;;;;18.85;9.27;;;;;;;2.65;100.00;101887.91;5034296;28;20108;-78
2023/11/17 05:54:43;;;;;;;18.35;9.65;;;;;;;2.65;100.00;101882.63;5034034;28;20050;-79
2023/11/17 05:57:17;;;;;;;18.55;9.80;;;;;;;2.64;100.00;101886.19;5034220;28;20025;-78
2023/11/17 05:59:44;;;;;;;24.02;9.73;;;;;;;2.64;100.00;101881.78;5033526;28;20413;-78
2023/11/17 06:02:19;;;;;;;23.42;10.93;;;;;;;2.66;100.00;101887.00;5033942;28;20036;-78
2023/11/17 06:04:44;;;;;;;31.17;10.98;;;;;;;2.70;100.00;101900.84;5033494;28;20030;-80
2023/11/17 06:07:10;;;;;;;23.58;10.57;;;;;;;2.73;100.00;101900.72;5034320;28;20386;-79
2023/11/17 06:09:37;;;;;;;19.15;9.88;;;;;;;2.75;100.00;101897.13;5034040;28;20108;-79
2023/11/17 06:12:03;;;;;;;23.45;11.65;;;;;;;2.80;100.00;101904.81;5033612;28;20045;-79
2023/11/17 06:14:33;;;;;;;27.85;11.82;;;;;;;2.87;100.00;101894.91;5033627;28;20079;-79
2023/11/17 06:17:00;;;;;;;36.00;14.88;;;;;;;2.92;100.00;101901.66;5033470;28;20176;-79
2023/11/17 06:19:28;;;;;;;42.85;15.45;;;;;;;3.00;100.00;101902.22;5033920;28;20492;-79
2023/11/17 06:21:54;;;;;;;38.20;15.77;;;;;;;3.08;100.00;101901.06;5033081;28;20045;-78
2023/11/17 06:24:20;;;;;;;46.15;16.65;;;;;;;3.15;100.00;101900.72;5031806;28;20037;-78
2023/11/17 06:26:45;;;;;;;45.38;15.88;;;;;;;3.20;100.00;101902.31;5033223;28;20034;-79
2023/11/17 06:29:15;;;;;;;49.00;17.00;;;;;;;3.24;100.00;101904.75;5033513;28;20125;-78
2023/11/17 06:31:45;;;;;;;41.13;16.10;;;;;;;3.27;100.00;101903.72;5032582;28;20107;-79
2023/11/17 06:34:10;;;;;;;41.50;17.23;;;;;;;3.30;100.00;101908.84;5033294;28;20048;-79
2023/11/17 06:36:37;;;;;;;38.78;16.13;;;;;;;3.31;100.00;101905.31;5033748;28;20159;-78
2023/11/17 06:39:13;;;;;;;39.13;16.25;;;;;;;3.31;100.00;101905.31;5032984;28;20039;-79
2023/11/17 06:41:43;;;;;;;32.85;15.43;;;;;;;3.33;100.00;101904.34;5033264;28;20034;-79
2023/11/17 06:44:09;;;;;;;47.67;16.73;;;;;;;3.33;100.00;101904.34;5032753;28;20026;-80
2023/11/17 06:46:36;;;;;;;40.08;16.05;;;;;;;3.34;100.00;101903.44;5033369;28;20108;-79
2023/11/17 06:49:02;;;;;;;42.88;16.90;;;;;;;3.35;100.00;101902.50;5032742;28;20029;-78
2023/11/17 06:51:31;;;;;;;43.60;15.48;;;;;;;3.37;100.00;101909.47;5032999;28;20040;-78
2023/11/17 06:53:57;;;;;;;36.75;15.88;;;;;;;3.39;100.00;101911.13;5032521;28;20089;-80
2023/11/17 06:56:22;;;;;;;40.35;15.38;;;;;;;3.41;100.00;101911.06;5033084;28;20512;-79
2023/11/17 06:58:47;;;;;;;40.22;16.33;;;;;;;3.45;100.00;101909.97;5032840;28;20061;-84
2023/11/17 07:01:14;;;;;;;42.70;17.70;;;;;;;3.47;100.00;101916.88;5032680;28;20045;-82
2023/11/17 07:03:40;;;;;;;45.13;16.67;;;;;;;3.49;100.00;101912.44;5032693;28;20482;-78
2023/11/17 07:06:06;;;;;;;37.60;15.55;;;;;;;3.51;100.00;101918.47;5032714;28;20101;-79
2023/11/17 07:08:31;;;;;;;36.03;16.35;;;;;;;3.50;100.00;101927.28;5032597;28;20068;-81
2023/11/17 07:10:57;;;;;;;40.40;16.80;;;;;;;3.52;100.00;101924.56;5032332;28;20102;-82
2023/11/17 07:13:22;;;;;;;48.58;17.15;;;;;;;3.56;100.00;101931.44;5032331;28;20363;-80
2023/11/17 07:15:48;;;;;;;47.42;17.23;;;;;;;3.59;100.00;101935.72;5032791;28;20426;-79
2023/11/17 07:18:13;;;;;;;47.67;16.73;;;;;;;3.59;100.00;101928.66;5032297;28;20588;-82
2023/11/17 07:20:39;;;;;;;39.20;16.83;;;;;;;3.61;100.00;101936.50;5032555;28;20033;-80
2023/11/17 07:23:04;;;;;;;41.00;16.88;;;;;;;3.61;100.00;101931.22;5032216;28;20466;-79
2023/11/17 07:25:31;;;;;;;49.38;18.05;;;;;;;3.62;100.00;101939.06;5032350;28;20041;-79
2023/11/17 07:27:57;;;;;;;43.08;17.80;;;;;;;3.61;100.00;101937.34;5030735;28;20030;-79
2023/11/17 07:30:23;;;;;;;56.63;18.67;;;;;;;3.61;100.00;101937.34;5032525;28;20040;-79
2023/11/17 07:32:49;;;;;;;49.60;19.25;;;;;;;3.62;100.00;101944.31;5032387;28;20037;-80
2023/11/17 07:35:14;;;;;;;61.03;21.25;;;;;;;3.67;100.00;101952.00;5031893;28;20036;-79
2023/11/17 07:37:40;;;;;;;58.67;20.33;;;;;;;3.72;100.00;101934.25;5032085;28;20037;-79
2023/11/17 07:40:06;;;;;;;56.78;20.27;;;;;;;3.81;100.00;101936.47;5031925;28;20029;-79
2023/11/17 07:42:33;;;;;;;60.35;21.25;;;;;;;3.87;100.00;101946.72;5031843;28;20030;-82
2023/11/17 07:44:58;;;;;;;49.85;18.63;;;;;;;3.92;100.00;101948.31;5025978;28;20038;-79
2023/11/17 07:47:24;;;;;;;60.75;20.30;;;;;;;3.97;100.00;101949.81;5029019;28;20027;-80
2023/11/17 07:49:54;;;;;;;56.00;20.45;;;;;;;4.02;100.00;101947.81;5029242;28;20037;-82
2023/11/17 07:52:23;;;;;;;56.72;20.05;;;;;;;4.07;100.00;101947.59;5026753;28;20493;-80
2023/11/17 07:54:48;;;;;;;53.97;21.45;;;;;;;4.10;100.00;101942.19;5029378;28;20049;-81
2023/11/17 07:57:14;;;;;;;55.90;20.15;;;;;;;4.14;100.00;101949.03;5028659;28;20044;-82
2023/11/17 07:59:40;;;;;;;46.95;19.05;;;;;;;4.18;100.00;101950.59;5029270;28;20116;-82
2023/11/17 08:02:06;;;;;;;55.80;21.20;;;;;;;4.24;100.00;101952.97;5028229;28;20063;-84
2023/11/17 08:04:32;;;;;;;53.88;20.20;;;;;;;4.29;100.00;101962.44;5029176;28;20042;-83
2023/11/17 08:06:57;;;;;;;60.53;20.25;;;;;;;4.35;100.00;101967.41;5028047;28;20030;-82
2023/11/17 08:09:22;;;;;;;52.95;19.55;;;;;;;4.40;100.00;101963.66;5027807;28;20041;-83
2023/11/17 08:11:48;;;;;;;55.72;20.98;;;;;;;4.45;100.00;101966.06;5029308;28;20120;-82
2023/11/17 08:14:14;;;;;;;58.22;21.38;;;;;;;4.50;100.00;101965.84;5029233;28;20030;-82
2023/11/17 08:16:40;;;;;;;54.72;20.40;;;;;;;4.52;100.00;101975.41;5029373;28;20037;-84
2023/11/17 08:19:08;;;;;;;52.22;21.70;;;;;;;4.53;100.00;101973.63;5028680;28;20034;-84
2023/11/17 08:21:34;;;;;;;54.08;21.85;;;;;;;4.58;100.00;101971.59;5027683;28;20037;-81
2023/11/17 08:23:59;;;;;;;55.85;22.08;;;;;;;4.59;100.00;101979.44;5027004;28;20033;-83
2023/11/17 08:26:32;;;;;;;48.45;21.52;;;;;;;4.65;100.00;101972.19;5029219;28;20079;-82
2023/11/17 08:28:58;;;;;;;58.20;21.35;;;;;;;4.70;100.00;101983.34;5029891;28;20029;-81
2023/11/17 08:31:24;;;;;;;50.42;22.60;;;;;;;4.77;100.00;101987.41;5028872;28;20033;-81
2023/11/17 08:33:51;;;;;;;54.88;21.88;;;;;;;4.88;100.00;101993.03;5029907;28;20124;-82
2023/11/17 08:36:17;;;;;;;57.33;22.40;;;;;;;4.99;100.00;101994.31;5029101;28;20037;-80
2023/11/17 08:38:44;;;;;;;63.65;21.95;;;;;;;5.12;100.00;101992.78;5027933;28;20053;-79
2023/11/17 08:41:12;;;;;;;53.30;22.08;;;;;;;5.25;100.00;101993.84;5028806;28;20390;-80
2023/11/17 08:43:39;;;;;;;48.63;21.83;;;;;;;5.35;100.00;101991.63;5028860;28;20478;-79
2023/11/17 08:46:07;;;;;;;50.33;21.50;;;;;;;5.46;100.00;101998.97;5028655;28;20044;-79
2023/11/17 08:48:37;;;;;;;47.13;20.40;;;;;;;5.58;100.00;102003.66;5028978;28;20157;-79
2023/11/17 08:51:03;;;;;;;44.83;21.40;;;;;;;5.67;100.00;102004.13;5028746;28;20037;-84
2023/11/17 08:53:29;;;;;;;44.45;19.65;;;;;;;5.69;100.00;102008.41;5028741;28;20048;-77
2023/11/17 08:56:00;;;;;;;44.13;20.45;;;;;;;5.73;100.00;102009.06;5028401;28;20061;-80
2023/11/17 08:58:26;;;;;;;46.33;20.63;;;;;;;5.75;100.00;102016.00;5028458;28;20487;-80
2023/11/17 09:00:51;;;;;;;39.50;20.58;;;;;;;5.77;100.00;102002.72;5027375;28;20128;-81
2023/11/17 09:03:17;;;;;;;40.78;20.25;;;;;;;5.83;100.00;102010.31;5027934;28;20064;-84
2023/11/17 09:05:42;;;;;;;44.00;20.40;;;;;;;5.87;100.00;102011.00;5027514;28;20045;-79
2023/11/17 09:08:08;;;;;;;37.53;20.13;;;;;;;5.93;100.00;102010.69;5026405;28;20033;-80
2023/11/17 09:10:33;;;;;;;46.88;21.48;;;;;;;6.00;100.00;102010.31;5028368;28;20436;-82
2023/11/17 09:12:59;;;;;;;39.70;20.08;;;;;;;6.10;100.00;102018.59;5028478;28;20466;-80
2023/11/17 09:15:27;;;;;;;37.38;19.48;;;;;;;6.11;100.00;102015.03;5028560;28;20133;-81
2023/11/17 09:17:53;;;;;;;37.97;18.83;;;;;;;6.15;100.00;102015.72;5028902;28;20096;-80
2023/11/17 09:20:21;;;;;;;34.00;18.67;;;;;;;6.19;100.00;102014.63;5028151;28;20030;-81
2023/11/17 09:22:47;;;;;;;41.67;18.70;;;;;;;6.30;100.00;102020.19;5028628;28;20040;-80
2023/11/17 09:25:15;;;;;;;34.58;19.67;;;;;;;6.44;100.00;102021.25;5027795;28;20064;-80
2023/11/17 09:27:45;;;;;;;41.33;19.20;;;;;;;6.59;100.00;102024.84;5028437;28;20033;-79
2023/11/17 09:30:12;;;;;;;34.27;17.37;;;;;;;6.71;100.00;102017.06;5026582;28;20488;-80
2023/11/17 09:32:43;;;;;;;26.35;15.75;;;;;;;6.79;100.00;102024.59;5028240;28;20032;-80
2023/11/17 09:35:15;;;;;;;32.60;15.38;;;;;;;6.93;100.00;102029.13;5029456;28;20037;-78
2023/11/17 09:37:53;;;;;;;26.27;13.35;;;;;;;7.02;100.00;102030.41;5032225;28;20041;-78
2023/11/17 09:40:21;;;;;;;26.08;14.07;;;;;;;7.18;100.00;102033.00;5031542;28;20033;-77
2023/11/17 09:42:54;;;;;;;31.50;13.05;;;;;;;7.35;100.00;102030.25;5031786;28;20095;-79
2023/11/17 09:45:24;;;;;;;25.00;13.65;;;;;;;7.63;100.00;102028.63;5030996;28;20044;-79
2023/11/17 09:48:01;;;;;;;20.20;11.95;;;;;;;7.91;100.00;102029.63;5030497;28;20120;-76
2023/11/17 09:50:30;;;;;;;18.15;11.07;;;;;;;8.20;100.00;102027.84;5031428;28;20030;-78
2023/11/17 09:52:57;;;;;;;23.55;10.77;;;;;;;8.25;100.00;102033.72;5031243;28;20033;-80
2023/11/17 09:55:30;;;;;;;14.40;9.18;;;;;;;8.21;100.00;102036.66;5030959;28;20150;-78
2023/11/17 09:58:06;;;;;;;16.42;9.82;;;;;;;8.17;100.00;102033.34;5032026;28;20159;-79
2023/11/17 10:00:45;;;;;;;17.10;8.95;;;;;;;8.12;100.00;102035.41;5031535;28;20026;-78
2023/11/17 10:03:13;;;;;;;17.33;9.25;;;;;;;8.04;100.00;102037.69;5031616;28;20033;-78
2023/11/17 10:05:39;;;;;;;13.02;7.75;;;;;;;8.03;100.00;102034.19;5030889;28;20037;-79
2023/11/17 10:08:12;;;;;;;14.57;8.38;;;;;;;8.08;100.00;102041.88;5030537;28;20097;-81
2023/11/17 10:10:42;;;;;;;15.13;8.10;;;;;;;8.15;100.00;102027.28;5030477;28;20037;-78
2023/11/17 10:13:11;;;;;;;15.65;8.35;;;;;;;8.21;100.00;102032.22;5031176;28;20057;-79
2023/11/17 10:15:44;;;;;;;11.88;7.40;;;;;;;8.25;100.00;102036.34;5030223;28;20500;-77
2023/11/17 10:18:13;;;;;;;11.18;6.93;;;;;;;8.17;100.00;102036.00;5031115;28;20117;-80
2023/11/17 10:20:39;;;;;;;7.55;5.40;;;;;;;8.13;100.00;102034.47;5030198;28;20061;-77
2023/11/17 10:23:05;;;;;;;8.93;4.72;;;;;;;8.14;100.00;102038.00;5030796;28;20492;-80
2023/11/17 10:25:32;;;;;;;5.45;3.72;;;;;;;8.10;100.00;102045.25;5030797;28;20033;-79
2023/11/17 10:27:59;;;;;;;5.32;3.90;;;;;;;8.21;100.00;102044.59;5031248;28;20469;-79
2023/11/17 10:30:28;;;;;;;5.35;3.60;;;;;;;8.31;100.00;102040.44;5030229;28;20039;-80
2023/11/17 10:33:15;;;;;;;9.23;4.07;;;;;;;8.48;100.00;102042.09;5030148;28;20037;-78
2023/11/17 10:35:43;;;;;;;6.57;4.00;;;;;;;8.67;100.00;102044.41;5030218;28;20082;-79
2023/11/17 10:38:15;;;;;;;8.32;4.00;;;;;;;8.90;100.00;102055.41;5030624;28;20108;-79
2023/11/17 10:40:41;;;;;;;8.38;2.97;;;;;;;9.02;100.00;102051.06;5028772;28;20037;-79
2023/11/17 10:43:11;;;;;;;3.97;3.00;;;;;;;9.07;100.00;102052.47;5030248;28;20029;-78
2023/11/17 10:45:38;;;;;;;5.20;3.13;;;;;;;9.10;100.00;102046.97;5033534;28;20037;-87
2023/11/17 10:48:08;;;;;;;6.38;3.58;;;;;;;9.14;100.00;102053.78;5042628;28;20052;-77
2023/11/17 10:50:37;;;;;;;6.18;3.67;;;;;;;9.11;100.00;102051.34;5052049;28;20051;-78
2023/11/17 10:53:23;;;;;;;7.85;3.90;;;;;;;9.13;100.00;102053.91;5053316;28;20033;-78
2023/11/17 10:55:53;;;;;;;8.60;4.40;;;;;;;9.14;100.00;102055.59;5052700;28;20055;-77
2023/11/17 10:58:19;;;;;;;4.28;3.70;;;;;;;9.22;100.00;102055.09;5053037;28;20025;-77
2023/11/17 11:00:47;;;;;;;7.05;3.97;;;;;;;9.12;100.00;102058.34;5052407;28;20457;-79
2023/11/17 11:03:13;;;;;;;6.10;3.85;;;;;;;9.15;100.00;102062.59;5053047;28;20029;-79
2023/11/17 11:05:41;;;;;;;7.15;3.83;;;;;;;9.18;100.00;102060.63;5052834;28;20029;-79
2023/11/17 11:08:12;;;;;;;6.57;3.85;;;;;;;9.13;100.00;102060.03;5053123;28;20040;-79
2023/11/17 11:10:38;;;;;;;8.00;3.80;;;;;;;9.18;100.00;102059.75;5052611;28;20032;-77
2023/11/17 11:13:04;;;;;;;4.30;3.40;;;;;;;9.11;100.00;102067.28;5053259;28;20361;-78
2023/11/17 11:15:32;;;;;;;5.03;3.50;;;;;;;9.10;100.00;102064.72;5052451;28;20048;-78
2023/11/17 11:17:59;;;;;;;5.70;3.65;;;;;;;9.10;100.00;102064.72;5051669;28;20370;-77
2023/11/17 11:20:25;;;;;;;5.32;3.25;;;;;;;9.05;100.00;102059.72;5052220;28;20036;-79
2023/11/17 11:22:52;;;;;;;4.05;3.00;;;;;;;8.97;100.00;102065.50;5052574;28;20020;-78